Tuskahoma, Oklahoma
Current Conditions -  °F | °C
As of 5:53 AM on Friday 19 Dec 2014 (Local Time) from KMLC Reporting Station
Overcast Overcast  
Wind Chill: 39°   Ceiling: 800
Heat Index: 42°   Visibility: 7mi
Dew Point: 39°   Wind: 5mph
Humidity: 89%   Direction: 50°NE
Pressure: 30.2"   Gusts: NA
Location:  34.62°N, 95.28°W
Report Text: KMLC 191153Z AUTO 05004KT 7SM OVC008 06/04 A3020 RMK AO2 SLP226 T00560039 10061 20056 55000
Loading
Personal Weather Stations






























Interactive Weather Map New forecast layout! Learn more

10-Day Weather Forecast

Advertisements
Track Severe Weather on mobile